Accueil
METAR-TAF:

METAR-TAF

Aéroports :

Aéroport du Havre-Octeville

Le Havre, France

latitude: 49-31N, longitude: 000-04E, altitude: 100 m

Observation

Le bulletin a été fait il y a 39 minutes, à 19:00 UTC
Vent 7 kt de est/sud-est
Température 3°C
Humidité 81%
Pression 1016 hPa
Visibilité: 9000 m

METAR: LFOH 211900Z AUTO 12007KT 9000 NSC 03/M00 Q1016 NOSIG

Heure: 20:39 (19:39 UTC)

Prévision

Le bulletin a été fait il y a 8 heures et 39 minutes, à 11:00 UTC
Prévision valable du 21 à 12 UTC au 22 à 12 UTC
Vent 8 kt de sud/sud-est
Visibilité: 8000 m
Temporairement
du 22 à 11 UTC au 22 à 12 UTC
Ciel couvert à une hauteur de 400 ft

TAF: LFOH 211100Z 2112/2212 15008KT 8000 NSC TEMPO 2211/2212 OVC004

Observations et prévisions météorologiques de plus de 4000 aéroports (messages METAR et TAF).

Les stations disponibles sont représentées par des disques jaunes et rouges sur la carte.

Passer la souris dessus pour voir le nom de la station.

Cliquer dessus pour voir les observations et prévisions météorologiques.

Pour changer de carte: cliquez sur les boutons verts avec une croix noire pour zoomer, sur le bouton vert avec un tiret pour effectuer un zoom arrière, ou sur les flèches vertes pour les cartes adjacentes.


METAR-TAF: